Time;durP1;ratioP1;P1;durP2;ratioP2;P2;SDS_P1;SDS_P2;PMS_P1;PMS_P2;Temp;Humidity;BMP_temperature;BMP_pressure;BME280_temperature;BME280_humidity;BME280_pressure;Samples;Min_cycle;Max_cycle;Signal;HPM_P1;HPM_P2
2022/10/04 00:02:28;;;;;;;3.50;3.20;;;;;;;9.57;nan;100200.25;4923552;29;20240;-74
2022/10/04 00:05:02;;;;;;;3.67;3.35;;;;;;;9.61;nan;100195.69;4923353;29;20237;-74
2022/10/04 00:07:36;;;;;;;3.60;3.03;;;;;;;9.63;nan;100194.69;4923715;29;20212;-74
2022/10/04 00:10:28;;;;;;;3.50;3.20;;;;;;;9.62;nan;100202.66;4921878;29;20217;-75
2022/10/04 00:12:58;;;;;;;5.00;3.60;;;;;;;9.62;nan;100197.41;4922045;29;20442;-75
2022/10/04 00:15:33;;;;;;;6.32;3.70;;;;;;;9.64;nan;100192.91;4922088;29;20237;-74
2022/10/04 00:18:05;;;;;;;4.60;3.60;;;;;;;9.63;nan;100183.38;4923152;29;20189;-74
2022/10/04 00:20:49;;;;;;;6.22;3.95;;;;;;;9.63;nan;100188.63;4922954;29;20198;-75
2022/10/04 00:23:24;;;;;;;4.55;3.70;;;;;;;9.65;nan;100187.63;4923186;29;21207;-74
2022/10/04 00:25:50;;;;;;;4.93;4.05;;;;;;;9.67;nan;100177.91;4923054;29;20225;-74
2022/10/04 00:28:19;;;;;;;5.63;4.00;;;;;;;9.71;nan;100182.03;4923027;29;20197;-74
2022/10/04 00:31:10;;;;;;;4.63;3.35;;;;;;;9.71;nan;100171.56;4922246;29;20278;-75
2022/10/04 00:33:40;;;;;;;4.00;3.35;;;;;;;9.70;nan;100172.50;4915212;29;20221;-75
2022/10/04 00:36:24;;;;;;;4.38;3.63;;;;;;;9.69;nan;100169.94;4923187;29;20194;-74
2022/10/04 00:39:04;;;;;;;4.43;3.88;;;;;;;9.67;nan;100174.44;4923172;29;20217;-74
2022/10/04 00:41:48;;;;;;;3.78;3.00;;;;;;;9.64;nan;100174.56;4922708;29;20213;-74
2022/10/04 00:44:30;;;;;;;2.65;2.45;;;;;;;9.62;nan;100179.06;4923338;29;20197;-74
2022/10/04 00:46:58;;;;;;;4.95;2.40;;;;;;;9.56;nan;100176.72;4922254;29;20204;-74
2022/10/04 00:49:28;;;;;;;2.33;2.20;;;;;;;9.41;nan;100168.72;4923149;29;20244;-74
2022/10/04 00:52:21;;;;;;;1.90;1.80;;;;;;;9.22;nan;100174.00;4923898;29;20264;-74
2022/10/04 00:54:51;;;;;;;3.40;2.28;;;;;;;9.03;nan;100186.31;4923726;29;20259;-74
2022/10/04 00:57:26;;;;;;;2.25;2.05;;;;;;;8.89;nan;100173.88;4927338;29;20197;-74
2022/10/04 00:59:57;;;;;;;2.22;2.03;;;;;;;8.75;nan;100177.16;4926828;29;20328;-75
2022/10/04 01:02:43;;;;;;;2.22;2.03;;;;;;;8.63;nan;100178.56;4927024;29;20210;-74
2022/10/04 01:05:26;;;;;;;3.35;2.35;;;;;;;8.54;nan;100172.91;4926319;29;20193;-74
2022/10/04 01:08:03;;;;;;;2.60;2.40;;;;;;;8.49;nan;100178.34;4926525;29;20197;-76
2022/10/04 01:10:39;;;;;;;2.92;2.70;;;;;;;8.44;nan;100179.47;4926065;29;20244;-75
2022/10/04 01:13:11;;;;;;;2.33;2.10;;;;;;;8.41;nan;100175.25;4926451;28;20315;-75
2022/10/04 01:15:41;;;;;;;2.75;2.30;;;;;;;8.43;nan;100172.56;4925960;29;20205;-75
2022/10/04 01:18:08;;;;;;;2.85;2.63;;;;;;;8.49;nan;100167.88;4925873;29;20304;-75
2022/10/04 01:20:40;;;;;;;3.03;2.75;;;;;;;8.56;nan;100166.69;4926474;29;20742;-75
2022/10/04 01:23:09;;;;;;;3.50;2.88;;;;;;;8.60;nan;100170.84;4926348;29;20357;-75
2022/10/04 01:25:49;;;;;;;3.40;2.85;;;;;;;8.61;nan;100172.56;4925931;28;20284;-75
2022/10/04 01:28:15;;;;;;;2.47;2.28;;;;;;;8.61;nan;100161.22;4926473;29;20193;-75
2022/10/04 01:30:41;;;;;;;3.10;2.80;;;;;;;8.58;nan;100164.81;4926446;29;20622;-75
2022/10/04 01:33:07;;;;;;;3.28;2.95;;;;;;;8.54;nan;100160.66;4926199;29;20433;-75
2022/10/04 01:35:34;;;;;;;2.80;2.50;;;;;;;8.56;nan;100161.44;4926497;29;20196;-75
2022/10/04 01:38:06;;;;;;;6.32;2.75;;;;;;;8.61;nan;100166.44;4925964;29;20190;-75
2022/10/04 01:40:34;;;;;;;3.45;2.90;;;;;;;8.63;nan;100152.38;4926393;29;20205;-75
2022/10/04 01:43:09;;;;;;;2.90;2.60;;;;;;;8.63;nan;100154.16;4925933;29;20237;-75
2022/10/04 01:45:42;;;;;;;3.50;3.20;;;;;;;8.61;nan;100149.00;4926074;29;20229;-75
2022/10/04 01:48:12;;;;;;;5.32;2.90;;;;;;;8.58;nan;100143.88;4925434;29;20190;-75
2022/10/04 01:50:56;;;;;;;5.60;3.90;;;;;;;8.57;nan;100134.34;4925947;29;20230;-75
2022/10/04 01:53:28;;;;;;;4.65;3.75;;;;;;;8.54;nan;100137.09;4926254;29;20571;-75
2022/10/04 01:56:03;;;;;;;7.88;3.92;;;;;;;8.48;nan;100129.53;4926488;29;20265;-75
2022/10/04 01:58:34;;;;;;;5.25;3.25;;;;;;;8.44;nan;100121.91;4926397;28;20264;-75
2022/10/04 02:01:15;;;;;;;4.18;3.20;;;;;;;8.38;nan;100123.00;4925964;29;20268;-75
2022/10/04 02:03:56;;;;;;;5.23;4.50;;;;;;;8.36;nan;100122.22;4924622;29;20547;-75
2022/10/04 02:06:24;;;;;;;4.45;3.72;;;;;;;8.36;nan;100119.59;4924865;29;20441;-75
2022/10/04 02:08:56;;;;;;;4.40;3.33;;;;;;;8.41;nan;100117.66;4925691;29;20883;-75
2022/10/04 02:11:23;;;;;;;4.10;3.38;;;;;;;8.48;nan;100113.84;4925561;29;20539;-75
2022/10/04 02:13:51;;;;;;;6.45;3.35;;;;;;;8.54;nan;100110.91;4925966;29;20202;-75
2022/10/04 02:16:19;;;;;;;3.33;3.03;;;;;;;8.60;nan;100113.25;4925900;29;20418;-75
2022/10/04 02:18:45;;;;;;;3.97;3.08;;;;;;;8.62;nan;100106.16;4926327;29;20202;-75
2022/10/04 02:21:14;;;;;;;3.93;3.10;;;;;;;8.56;nan;100116.94;4926401;29;20813;-75
2022/10/04 02:23:40;;;;;;;2.38;2.17;;;;;;;8.44;nan;100109.66;4926384;29;20245;-75
2022/10/04 02:26:08;;;;;;;2.22;2.10;;;;;;;8.31;nan;100106.72;4925418;29;20308;-75
2022/10/04 02:28:34;;;;;;;2.50;1.92;;;;;;;8.18;nan;100095.97;4928701;29;20206;-75
2022/10/04 02:33:49;;;;;;;3.00;2.70;;;;;;;8.00;nan;100103.81;4925920;29;20447;-75
2022/10/04 02:36:15;;;;;;;3.55;3.25;;;;;;;7.90;nan;100103.38;4926275;29;20206;-75
2022/10/04 02:39:09;;;;;;;4.20;3.00;;;;;;;7.84;nan;100091.41;4926339;29;20623;-75
2022/10/04 02:41:43;;;;;;;3.58;2.55;;;;;;;7.83;nan;100094.97;4926643;29;20587;-75
2022/10/04 02:44:16;;;;;;;6.13;2.40;;;;;;;7.86;nan;100094.81;4926051;29;20198;-75
2022/10/04 02:46:50;;;;;;;3.08;2.40;;;;;;;7.85;nan;100097.50;4926436;29;20190;-75
2022/10/04 02:49:36;;;;;;;3.17;2.90;;;;;;;7.83;nan;100104.53;4926504;29;20216;-75
2022/10/04 02:52:05;;;;;;;2.78;2.30;;;;;;;7.79;nan;100100.38;4926315;29;20236;-75
2022/10/04 02:54:39;;;;;;;2.75;2.55;;;;;;;7.78;nan;100101.28;4926987;29;20201;-75
2022/10/04 02:57:14;;;;;;;4.32;3.38;;;;;;;7.75;nan;100104.91;4925814;29;20204;-75
2022/10/04 02:59:40;;;;;;;3.67;3.00;;;;;;;7.72;nan;100105.91;4924901;29;20214;-75
2022/10/04 03:02:21;;;;;;;4.03;3.50;;;;;;;7.76;nan;100109.22;4923636;29;20495;-75
2022/10/04 03:04:49;;;;;;;3.50;3.13;;;;;;;7.80;nan;100107.31;4924301;29;20206;-75
2022/10/04 03:07:15;;;;;;;2.70;2.35;;;;;;;7.82;nan;100102.84;4924062;29;20182;-75
2022/10/04 03:09:41;;;;;;;5.00;4.20;;;;;;;7.84;nan;100103.66;4924082;29;20299;-75
2022/10/04 03:12:10;;;;;;;4.23;3.80;;;;;;;7.85;nan;100095.72;4924168;29;20334;-75
2022/10/04 03:14:37;;;;;;;3.45;3.15;;;;;;;7.89;nan;100092.06;4923038;28;20233;-75
2022/10/04 03:17:03;;;;;;;4.75;2.85;;;;;;;7.93;nan;100098.84;4923447;29;20730;-75
2022/10/04 03:19:31;;;;;;;3.47;3.13;;;;;;;7.96;nan;100087.38;4924165;29;20226;-74
2022/10/04 03:22:01;;;;;;;3.05;2.80;;;;;;;7.98;nan;100096.03;4923176;29;20217;-75
2022/10/04 03:24:31;;;;;;;3.38;2.92;;;;;;;8.03;nan;100098.44;4923494;29;20201;-75
2022/10/04 03:27:01;;;;;;;4.95;3.22;;;;;;;8.07;nan;100097.38;4923823;29;20186;-75
2022/10/04 03:29:30;;;;;;;5.40;3.22;;;;;;;8.09;nan;100101.63;4924110;29;20307;-75
2022/10/04 03:31:59;;;;;;;5.63;2.95;;;;;;;8.11;nan;100102.41;4923752;29;20627;-75
2022/10/04 03:34:33;;;;;;;3.13;2.75;;;;;;;8.12;nan;100100.63;4923305;29;20353;-75
2022/10/04 03:37:00;;;;;;;3.40;3.10;;;;;;;8.11;nan;100099.78;4923040;29;20216;-75
2022/10/04 03:39:37;;;;;;;6.68;4.13;;;;;;;8.13;nan;100100.56;4923804;29;20651;-75
2022/10/04 03:42:21;;;;;;;3.50;3.20;;;;;;;8.11;nan;100098.94;4922863;29;20781;-74
2022/10/04 03:44:50;;;;;;;5.22;3.83;;;;;;;8.09;nan;100098.16;4924020;29;20289;-75
2022/10/04 03:47:21;;;;;;;2.70;2.50;;;;;;;8.08;nan;100094.69;4924235;29;20213;-75
2022/10/04 03:49:48;;;;;;;5.70;4.38;;;;;;;8.05;nan;100099.22;4923817;29;20268;-75
2022/10/04 03:52:23;;;;;;;4.43;4.03;;;;;;;8.03;nan;100098.44;4922981;29;20460;-74
2022/10/04 03:54:51;;;;;;;5.32;4.13;;;;;;;8.02;nan;100099.34;4923152;29;20189;-75
2022/10/04 03:57:17;;;;;;;5.45;4.10;;;;;;;8.02;nan;100100.22;4923040;29;20193;-75
2022/10/04 03:59:43;;;;;;;6.57;3.80;;;;;;;8.02;nan;100101.97;4924005;29;20198;-75
2022/10/04 04:02:35;;;;;;;5.87;4.63;;;;;;;8.05;nan;100099.22;4922954;29;20458;-75
2022/10/04 04:05:17;;;;;;;3.88;3.45;;;;;;;8.07;nan;100103.44;4923300;29;20196;-74
2022/10/04 04:07:49;;;;;;;3.38;3.08;;;;;;;8.10;nan;100107.69;4924346;29;20186;-75
2022/10/04 04:10:22;;;;;;;5.57;3.25;;;;;;;8.11;nan;100120.72;4923487;29;20774;-75
2022/10/04 04:12:59;;;;;;;5.78;3.78;;;;;;;8.12;nan;100117.16;4922834;29;20717;-75
2022/10/04 04:15:31;;;;;;;8.15;7.35;;;;;;;8.12;nan;100127.63;4923435;29;20323;-73
2022/10/04 04:18:10;;;;;;;7.70;5.47;;;;;;;8.11;nan;100128.56;4922903;29;20241;-73
2022/10/04 04:20:41;;;;;;;2.70;2.50;;;;;;;8.10;nan;100129.50;4922497;29;20751;-74
2022/10/04 04:23:10;;;;;;;4.07;2.58;;;;;;;8.05;nan;100133.25;4922515;29;20241;-73
2022/10/04 04:25:40;;;;;;;4.45;4.05;;;;;;;8.01;nan;100127.28;4922681;29;20310;-73
2022/10/04 04:28:24;;;;;;;3.85;3.45;;;;;;;8.01;nan;100129.06;4922419;29;20186;-73
2022/10/04 04:31:12;;;;;;;4.60;3.72;;;;;;;8.02;nan;100133.34;4922598;29;20284;-73
2022/10/04 04:33:46;;;;;;;5.43;4.63;;;;;;;8.05;nan;100135.84;4921603;29;20674;-73
2022/10/04 04:36:13;;;;;;;5.80;4.78;;;;;;;8.05;nan;100134.09;4922427;29;20785;-73
2022/10/04 04:41:27;;;;;;;6.47;4.00;;;;;;;8.06;nan;100127.91;4931214;28;20304;-74
2022/10/04 04:43:52;;;;;;;3.42;3.13;;;;;;;8.05;nan;100131.47;4922267;29;20284;-73
2022/10/04 04:46:19;;;;;;;6.13;4.67;;;;;;;8.06;nan;100121.84;4922245;29;20189;-73
2022/10/04 04:48:48;;;;;;;4.25;3.70;;;;;;;8.07;nan;100118.31;4922878;29;20663;-73
2022/10/04 04:51:20;;;;;;;4.43;3.70;;;;;;;8.06;nan;100125.31;4922251;29;20292;-73
2022/10/04 04:53:47;;;;;;;5.70;4.20;;;;;;;8.06;nan;100119.22;4922179;29;20217;-74
2022/10/04 04:56:18;;;;;;;4.28;3.85;;;;;;;8.06;nan;100121.84;4922524;29;20185;-74
2022/10/04 04:58:45;;;;;;;5.07;3.78;;;;;;;8.04;nan;100129.75;4923069;29;20586;-73
2022/10/04 05:01:20;;;;;;;5.55;4.05;;;;;;;8.04;nan;100128.91;4922275;29;20185;-74
2022/10/04 05:04:03;;;;;;;3.40;2.75;;;;;;;7.97;nan;100123.97;4922539;29;20239;-74
2022/10/04 05:06:30;;;;;;;6.45;2.70;;;;;;;7.90;nan;100116.44;4922543;29;20597;-74
2022/10/04 05:08:55;;;;;;;3.40;3.10;;;;;;;7.84;nan;100125.41;4922528;29;20187;-73
2022/10/04 05:11:27;;;;;;;10.27;2.83;;;;;;;7.80;nan;100112.53;4921906;29;20225;-74
2022/10/04 05:14:05;;;;;;;3.65;2.97;;;;;;;7.80;nan;100120.38;4922559;29;20209;-74
2022/10/04 05:16:36;;;;;;;5.93;3.63;;;;;;;7.84;nan;100122.81;4923041;29;20598;-75
2022/10/04 05:19:29;;;;;;;6.78;4.80;;;;;;;7.92;nan;100114.63;4922690;29;20280;-74
2022/10/04 05:22:09;;;;;;;12.32;5.50;;;;;;;7.97;nan;100110.88;4918013;29;20414;-74
2022/10/04 05:24:46;;;;;;;12.98;6.95;;;;;;;8.05;nan;100112.31;4922970;29;20599;-74
2022/10/04 05:27:38;;;;;;;10.90;6.85;;;;;;;8.11;nan;100115.47;4922307;29;20189;-74
2022/10/04 05:30:38;;;;;;;19.42;7.57;;;;;;;8.15;nan;100111.78;4922694;29;20670;-74
2022/10/04 05:33:10;;;;;;;12.80;6.90;;;;;;;8.24;nan;100120.19;4921734;29;21143;-73
2022/10/04 05:36:08;;;;;;;11.32;5.82;;;;;;;8.27;nan;100120.88;4922538;29;20251;-74
2022/10/04 05:38:47;;;;;;;8.15;4.15;;;;;;;8.24;nan;100114.94;4924162;29;20195;-74
2022/10/04 05:41:41;;;;;;;10.93;3.97;;;;;;;8.17;nan;100106.50;4926019;29;20194;-74
2022/10/04 05:44:24;;;;;;;5.03;3.47;;;;;;;8.12;nan;100101.47;4936289;29;20233;-74
2022/10/04 05:47:01;;;;;;;25.98;6.93;;;;;;;8.08;nan;100109.56;4926507;29;20742;-73
2022/10/04 05:49:37;;;;;;;16.88;6.63;;;;;;;8.03;nan;100108.91;4926556;28;20198;-73
2022/10/04 05:52:13;;;;;;;17.05;7.22;;;;;;;8.02;nan;100110.69;4926449;29;20564;-74
2022/10/04 05:54:38;;;;;;;17.13;7.03;;;;;;;8.01;nan;100116.81;4923895;29;20711;-74
2022/10/04 05:57:26;;;;;;;10.03;6.50;;;;;;;7.98;nan;100112.56;4924838;29;20226;-74
2022/10/04 06:00:08;;;;;;;10.80;6.10;;;;;;;8.03;nan;100111.53;4926841;29;20223;-74
2022/10/04 06:03:11;;;;;;;12.23;6.45;;;;;;;8.08;nan;100110.41;4927113;29;20212;-73
2022/10/04 06:05:53;;;;;;;15.32;5.53;;;;;;;8.16;nan;100113.50;4926831;29;20245;-74
2022/10/04 06:08:46;;;;;;;12.93;6.10;;;;;;;8.23;nan;100113.22;4926078;29;20350;-74
2022/10/04 06:11:52;;;;;;;13.65;6.68;;;;;;;8.30;nan;100115.50;4923804;29;20260;-73
2022/10/04 06:14:47;;;;;;;12.98;7.10;;;;;;;8.40;nan;100124.66;4919140;29;20206;-74
2022/10/04 06:18:06;;;;;;;9.50;6.18;;;;;;;8.48;nan;100126.94;4924243;29;20576;-74
2022/10/04 06:21:09;;;;;;;8.80;5.05;;;;;;;8.51;nan;100134.63;4891973;29;20238;-74
2022/10/04 06:23:42;;;;;;;5.85;5.05;;;;;;;8.54;nan;100134.47;4924486;29;20283;-73
2022/10/04 06:26:20;;;;;;;7.43;5.40;;;;;;;8.60;nan;100136.81;4923151;29;20197;-74
2022/10/04 06:28:53;;;;;;;16.13;6.53;;;;;;;8.66;nan;100138.28;4925136;29;20189;-74
2022/10/04 06:31:24;;;;;;;10.98;6.45;;;;;;;8.72;nan;100147.63;4924710;29;20217;-74
2022/10/04 06:34:16;;;;;;;21.50;7.80;;;;;;;8.78;nan;100147.34;4924943;29;20245;-74
2022/10/04 06:37:00;;;;;;;12.50;9.60;;;;;;;8.88;nan;100148.59;4924663;29;20200;-74
2022/10/04 06:39:40;;;;;;;12.52;8.15;;;;;;;8.97;nan;100148.16;4924363;29;20233;-74
2022/10/04 06:42:20;;;;;;;19.30;7.70;;;;;;;9.04;nan;100143.44;4924615;29;20225;-73
2022/10/04 06:44:57;;;;;;;25.52;7.85;;;;;;;9.09;nan;100146.69;4923794;29;20692;-74
2022/10/04 06:47:42;;;;;;;25.63;12.90;;;;;;;9.12;nan;100153.56;4924446;29;20232;-74
2022/10/04 06:50:24;;;;;;;21.23;8.85;;;;;;;9.17;nan;100151.56;4922535;29;20649;-74
2022/10/04 06:53:15;;;;;;;33.30;9.55;;;;;;;9.24;nan;100156.44;4924353;29;20257;-74
2022/10/04 06:55:55;;;;;;;17.23;9.25;;;;;;;9.34;nan;100151.56;4924623;28;20663;-73
2022/10/04 06:59:07;;;;;;;25.10;8.00;;;;;;;9.43;nan;100145.88;4924037;29;20351;-74
2022/10/04 07:01:37;;;;;;;22.73;9.88;;;;;;;9.46;nan;100150.97;4923916;29;20921;-74
2022/10/04 07:04:27;;;;;;;18.67;9.18;;;;;;;9.50;nan;100147.28;4924232;29;20457;-74
2022/10/04 07:07:34;;;;;;;12.90;9.55;;;;;;;9.59;nan;100158.25;4923510;29;20625;-74
2022/10/04 07:10:05;;;;;;;15.65;9.05;;;;;;;9.63;nan;100159.75;4923312;29;20218;-74
2022/10/04 07:12:34;;;;;;;17.38;10.25;;;;;;;9.70;nan;100171.66;4923479;29;20804;-73
2022/10/04 07:15:02;;;;;;;13.93;10.40;;;;;;;9.78;nan;100168.63;4923876;29;20201;-74
2022/10/04 07:17:38;;;;;;;14.50;8.35;;;;;;;9.90;nan;100160.13;4924042;29;20815;-74
2022/10/04 07:20:06;;;;;;;13.05;8.65;;;;;;;9.98;nan;100153.53;4924088;29;20185;-74
2022/10/04 07:22:34;;;;;;;14.43;8.68;;;;;;;10.07;nan;100156.59;4938047;29;20218;-74
2022/10/04 07:25:13;;;;;;;19.15;8.63;;;;;;;10.19;nan;100163.84;4923851;29;20200;-74
2022/10/04 07:27:48;;;;;;;10.05;7.72;;;;;;;10.30;nan;100158.06;4924271;29;20278;-71
2022/10/04 07:30:39;;;;;;;21.00;8.57;;;;;;;10.41;nan;100169.66;4924416;29;20346;-74
2022/10/04 07:33:07;;;;;;;11.43;8.30;;;;;;;10.46;nan;100168.59;4923926;29;20266;-74
2022/10/04 07:35:45;;;;;;;9.65;6.72;;;;;;;10.50;nan;100165.69;4923253;29;20645;-74
2022/10/04 07:38:16;;;;;;;11.05;7.50;;;;;;;10.53;nan;100178.69;4923597;29;20252;-75
2022/10/04 07:41:06;;;;;;;12.50;7.85;;;;;;;10.57;nan;100174.94;4923759;29;20226;-74
2022/10/04 07:43:47;;;;;;;11.48;6.63;;;;;;;10.63;nan;100184.25;4938265;29;20218;-74
2022/10/04 07:46:27;;;;;;;11.20;7.32;;;;;;;10.73;nan;100177.56;4937487;29;20439;-74
2022/10/04 07:48:54;;;;;;;8.80;6.90;;;;;;;10.83;nan;100168.25;4921674;29;20205;-74
2022/10/04 07:51:31;;;;;;;9.93;8.07;;;;;;;10.98;nan;100170.94;4922710;29;20302;-74
2022/10/04 07:54:20;;;;;;;8.48;6.60;;;;;;;11.12;nan;100173.63;4922945;29;20202;-74
2022/10/04 07:56:54;;;;;;;9.07;7.82;;;;;;;11.42;nan;100175.44;4923427;29;20220;-75
2022/10/04 07:59:30;;;;;;;8.75;7.85;;;;;;;11.87;nan;100157.91;4922965;29;20198;-74
2022/10/04 08:02:21;;;;;;;6.40;5.80;;;;;;;12.18;nan;100160.38;4922715;29;20631;-74
2022/10/04 08:04:55;;;;;;;7.55;6.85;;;;;;;12.56;nan;100156.31;4923850;29;20194;-74
2022/10/04 08:07:52;;;;;;;8.68;6.30;;;;;;;13.05;nan;100151.34;4923854;29;20296;-74
2022/10/04 08:10:33;;;;;;;6.53;5.47;;;;;;;13.66;nan;100150.88;4921859;29;20201;-73
2022/10/04 08:13:18;;;;;;;6.10;5.32;;;;;;;14.17;nan;100153.53;4920151;29;20237;-74
2022/10/04 08:15:44;;;;;;;5.50;4.97;;;;;;;14.47;nan;100147.03;4922871;28;20205;-74
2022/10/04 08:18:25;;;;;;;5.70;4.90;;;;;;;14.64;nan;100143.25;4923792;29;20196;-74
2022/10/04 08:21:12;;;;;;;5.63;5.03;;;;;;;14.82;nan;100139.25;4922969;29;20810;-75
2022/10/04 08:23:59;;;;;;;6.70;5.43;;;;;;;14.97;nan;100139.94;4923235;29;20193;-74
2022/10/04 08:26:36;;;;;;;6.38;5.22;;;;;;;15.18;nan;100142.81;4923514;29;20628;-73
2022/10/04 08:32:42;;;;;;;6.93;6.07;;;;;;;16.22;nan;100141.97;4923366;29;20209;-72
2022/10/04 08:35:20;;;;;;;5.68;4.13;;;;;;;16.89;nan;100128.63;4923786;29;20209;-72
2022/10/04 08:37:45;;;;;;;5.90;5.40;;;;;;;17.38;nan;100121.91;4923147;29;20190;-73
2022/10/04 08:40:48;;;;;;;6.00;5.10;;;;;;;17.95;nan;100116.25;4923234;29;20182;-75
2022/10/04 08:43:42;;;;;;;5.70;4.55;;;;;;;18.39;nan;100122.16;4922834;29;20213;-75
2022/10/04 08:46:31;;;;;;;6.55;5.03;;;;;;;18.91;nan;100120.22;4923461;29;20217;-75
2022/10/04 08:49:36;;;;;;;5.50;4.72;;;;;;;19.41;nan;100118.25;4923026;29;20202;-75
2022/10/04 08:52:21;;;;;;;6.05;4.90;;;;;;;19.45;nan;100118.81;4923604;28;20832;-73
2022/10/04 08:54:53;;;;;;;5.82;4.28;;;;;;;19.44;nan;100119.78;4924662;29;20198;-72
2022/10/04 08:58:00;;;;;;;5.18;3.90;;;;;;;19.55;nan;100119.66;4924123;29;20201;-72
2022/10/04 09:00:47;;;;;;;6.85;4.57;;;;;;;19.79;nan;100113.00;4924377;29;20250;-72
2022/10/04 09:03:41;;;;;;;7.18;5.68;;;;;;;19.66;nan;100119.53;4925105;29;20261;-73
2022/10/04 09:06:28;;;;;;;6.50;5.20;;;;;;;19.52;nan;100114.59;4597324;28;10001207;-73
2022/10/04 09:09:46;;;;;;;6.38;5.28;;;;;;;19.18;nan;100115.03;4924683;29;20190;-72
2022/10/04 09:12:12;;;;;;;5.78;5.25;;;;;;;18.50;nan;100122.94;4924252;29;20294;-73
2022/10/04 09:14:44;;;;;;;6.70;5.90;;;;;;;18.19;nan;100127.44;4929077;29;20612;-71
2022/10/04 09:17:20;;;;;;;9.55;6.35;;;;;;;17.84;nan;100123.34;4928578;29;20212;-73
2022/10/04 09:20:10;;;;;;;7.22;5.90;;;;;;;17.50;nan;100114.72;4926024;29;20189;-74
2022/10/04 09:22:48;;;;;;;8.20;6.68;;;;;;;17.23;nan;100117.91;4925766;29;20843;-73
2022/10/04 09:25:38;;;;;;;7.78;5.97;;;;;;;17.10;nan;100117.22;4926216;29;20689;-73
2022/10/04 09:28:42;;;;;;;7.68;6.85;;;;;;;16.80;nan;100116.13;4925583;29;20352;-73
2022/10/04 09:31:46;;;;;;;10.65;7.72;;;;;;;16.64;nan;100113.00;4924994;29;20312;-73
2022/10/04 09:34:40;;;;;;;15.52;6.80;;;;;;;16.51;nan;100111.31;4925038;29;20202;-73
2022/10/04 09:37:31;;;;;;;8.02;6.97;;;;;;;16.36;nan;100105.44;4889641;28;20242;-72
2022/10/04 09:40:26;;;;;;;8.00;5.93;;;;;;;16.34;nan;100095.94;4887755;29;20274;-73
2022/10/04 09:43:20;;;;;;;8.55;7.03;;;;;;;16.28;nan;100101.69;4887121;29;20223;-72
2022/10/04 09:45:53;;;;;;;7.90;5.85;;;;;;;16.35;nan;100102.91;4887464;29;20271;-71
2022/10/04 09:48:42;;;;;;;8.95;7.50;;;;;;;16.48;nan;100103.63;4887456;29;20231;-71
2022/10/04 09:51:24;;;;;;;8.95;5.90;;;;;;;16.71;nan;100108.84;4887498;29;20584;-73
2022/10/04 09:54:22;;;;;;;10.00;6.65;;;;;;;16.76;nan;100117.28;4887924;29;20242;-74
2022/10/04 09:57:19;;;;;;;10.85;6.65;;;;;;;16.72;nan;100111.41;4887889;29;20200;-74
2022/10/04 09:59:57;;;;;;;8.27;6.05;;;;;;;16.78;nan;100108.28;4886087;29;20207;-73
2022/10/04 10:02:39;;;;;;;9.23;6.53;;;;;;;16.92;nan;100109.78;4887370;29;20295;-74
2022/10/04 10:05:29;;;;;;;8.43;6.43;;;;;;;17.11;nan;100100.31;4886877;29;20191;-73
2022/10/04 10:08:20;;;;;;;9.45;7.20;;;;;;;17.03;nan;100099.13;4887105;29;20242;-74
2022/10/04 10:14:16;;;;;;;8.73;7.82;;;;;;;16.76;nan;100096.91;4887355;29;20241;-74
2022/10/04 10:17:04;;;;;;;10.57;7.43;;;;;;;16.74;nan;100087.38;5052279;24;20505;-83
2022/10/04 10:20:00;;;;;;;8.07;6.50;;;;;;;16.85;nan;100090.06;4877159;29;20192;-83
2022/10/04 10:23:04;;;;;;;10.48;6.15;;;;;;;17.10;nan;100094.16;4896855;29;20218;-82
2022/10/04 10:26:00;;;;;;;8.07;6.28;;;;;;;17.35;nan;100095.59;4898590;29;20230;-82
2022/10/04 10:28:37;;;;;;;7.28;6.05;;;;;;;17.47;nan;100094.59;4881669;29;20200;-83
2022/10/04 10:31:24;;;;;;;8.10;5.85;;;;;;;17.60;nan;100088.22;4876298;29;20197;-83
2022/10/04 10:34:20;;;;;;;9.25;7.57;;;;;;;17.74;nan;100089.69;4871543;29;20480;-83
2022/10/04 10:36:48;;;;;;;9.18;7.20;;;;;;;17.81;nan;100097.03;4872266;29;20238;-83
2022/10/04 10:39:24;;;;;;;7.38;6.45;;;;;;;17.84;nan;100095.94;4872759;29;20235;-83
2022/10/04 10:42:26;;;;;;;12.13;7.55;;;;;;;17.90;nan;100098.91;4872007;29;20293;-83
2022/10/04 10:45:29;;;;;;;16.52;7.03;;;;;;;17.96;nan;100094.00;4872796;29;20213;-83
2022/10/04 10:48:16;;;;;;;7.35;6.03;;;;;;;17.97;nan;100088.59;4871918;29;20211;-82
2022/10/04 10:51:09;;;;;;;7.90;5.88;;;;;;;17.91;nan;100092.63;4870865;29;20294;-83
2022/10/04 10:53:59;;;;;;;6.07;5.55;;;;;;;17.91;nan;100089.97;4871982;29;20340;-83
2022/10/04 10:56:41;;;;;;;8.45;6.95;;;;;;;17.92;nan;100088.13;4871832;29;20829;-83
2022/10/04 10:59:40;;;;;;;8.15;6.65;;;;;;;17.83;nan;100089.78;4871184;29;20239;-83
2022/10/04 11:02:24;;;;;;;8.85;7.63;;;;;;;17.71;nan;100082.81;4870431;29;20314;-83
2022/10/04 11:05:21;;;;;;;8.90;6.20;;;;;;;17.68;nan;100075.94;4872196;29;20213;-82
2022/10/04 11:08:03;;;;;;;9.00;6.50;;;;;;;17.73;nan;100078.22;4872539;29;20218;-82
2022/10/04 11:10:47;;;;;;;7.93;6.35;;;;;;;17.81;nan;100083.75;4876664;29;20239;-83
2022/10/04 11:13:29;;;;;;;7.80;5.90;;;;;;;17.82;nan;100085.44;4871803;29;20207;-83
2022/10/04 11:16:30;;;;;;;7.75;6.20;;;;;;;17.84;nan;100083.47;4871720;29;20266;-83
2022/10/04 11:19:09;;;;;;;9.10;6.28;;;;;;;17.81;nan;100078.44;4873653;29;20258;-83
2022/10/04 11:22:15;;;;;;;12.93;7.05;;;;;;;17.78;nan;100064.53;4872261;29;20238;-83
2022/10/04 11:24:59;;;;;;;8.38;6.47;;;;;;;17.84;nan;100056.06;4870526;29;20220;-83
2022/10/04 11:28:02;;;;;;;6.90;5.82;;;;;;;17.78;nan;100057.41;4870125;29;20233;-84
2022/10/04 11:30:51;;;;;;;7.50;5.97;;;;;;;17.79;nan;100056.47;4871983;29;20238;-84
2022/10/04 11:34:01;;;;;;;6.25;5.18;;;;;;;17.88;nan;100052.19;4872141;29;20535;-84
2022/10/04 11:36:49;;;;;;;6.17;4.80;;;;;;;17.96;nan;100043.50;4869238;29;20794;-84
2022/10/04 11:39:43;;;;;;;10.18;7.10;;;;;;;17.89;nan;100048.53;4884934;29;20494;-83
2022/10/04 11:42:39;;;;;;;7.47;5.20;;;;;;;17.90;nan;100036.94;4873005;29;20680;-84
2022/10/04 11:45:32;;;;;;;5.20;3.60;;;;;;;17.97;nan;100038.09;4872076;29;20465;-84
2022/10/04 11:48:10;;;;;;;5.85;4.07;;;;;;;17.94;nan;100025.06;4872379;29;20455;-84
2022/10/04 11:50:53;;;;;;;7.40;4.23;;;;;;;17.94;nan;100018.91;4873012;29;20238;-84
2022/10/04 11:54:02;;;;;;;5.00;4.50;;;;;;;17.95;nan;100021.41;4870143;29;20498;-84
2022/10/04 11:57:09;;;;;;;5.13;4.50;;;;;;;17.88;nan;100029.09;4870900;29;20470;-84
2022/10/04 11:59:47;;;;;;;6.75;4.18;;;;;;;17.94;nan;100026.88;4873068;29;20414;-84
2022/10/04 12:02:27;;;;;;;6.03;4.65;;;;;;;18.06;nan;100028.44;4874065;29;21001;-84
2022/10/04 12:05:37;;;;;;;5.30;4.80;;;;;;;18.22;nan;100023.44;4872500;29;20217;-85
2022/10/04 12:08:20;;;;;;;4.38;3.95;;;;;;;18.34;nan;100026.84;4871022;29;20732;-84
2022/10/04 12:11:15;;;;;;;5.30;4.00;;;;;;;18.44;nan;100030.34;4872483;29;20689;-84
2022/10/04 12:14:15;;;;;;;10.17;4.40;;;;;;;18.50;nan;100021.84;4870181;29;20712;-84
2022/10/04 12:17:09;;;;;;;5.03;4.53;;;;;;;18.50;nan;100026.31;4870951;29;21059;-84
2022/10/04 12:20:19;;;;;;;5.20;4.13;;;;;;;18.50;nan;100016.50;4869772;29;21012;-84
2022/10/04 12:23:00;;;;;;;4.47;4.03;;;;;;;18.56;nan;100017.78;4869513;29;20636;-85
2022/10/04 12:25:39;;;;;;;5.73;4.93;;;;;;;18.58;nan;100007.84;4868739;29;20452;-83
2022/10/04 12:28:36;;;;;;;5.73;4.30;;;;;;;18.59;nan;100009.53;4871179;29;20445;-84
2022/10/04 12:31:08;;;;;;;4.60;4.10;;;;;;;18.60;nan;100011.19;4870589;29;20498;-85
2022/10/04 12:33:52;;;;;;;5.68;4.60;;;;;;;18.65;nan;100016.09;4870170;29;20807;-84
2022/10/04 12:36:43;;;;;;;4.30;3.63;;;;;;;18.62;nan;100009.22;4870634;29;20238;-85
2022/10/04 12:39:23;;;;;;;4.00;3.63;;;;;;;18.63;nan;99999.44;4872713;29;20470;-84
2022/10/04 12:42:30;;;;;;;3.50;3.17;;;;;;;18.71;nan;100004.88;4871015;29;20942;-84
2022/10/04 12:45:20;;;;;;;4.80;3.23;;;;;;;18.74;nan;100000.19;4873877;29;20489;-86
2022/10/04 12:48:11;;;;;;;3.73;2.93;;;;;;;18.77;nan;100007.03;4872478;29;20465;-84
2022/10/04 12:50:39;;;;;;;4.03;2.80;;;;;;;18.78;nan;100001.56;4871601;29;20870;-84
2022/10/04 12:53:13;;;;;;;4.33;4.00;;;;;;;18.82;nan;100001.28;4869116;29;20764;-84
2022/10/04 12:55:59;;;;;;;5.13;4.60;;;;;;;18.83;nan;99998.50;4869427;29;20500;-85
2022/10/04 12:58:42;;;;;;;4.63;3.50;;;;;;;18.87;nan;99999.88;4869890;29;20705;-85
2022/10/04 13:01:33;;;;;;;6.43;4.10;;;;;;;18.92;nan;100002.13;4870225;29;20449;-85